Time;durP1;ratioP1;P1;durP2;ratioP2;P2;SDS_P1;SDS_P2;PMS_P1;PMS_P2;Temp;Humidity;BMP_temperature;BMP_pressure;BME280_temperature;BME280_humidity;BME280_pressure;Samples;Min_cycle;Max_cycle;Signal;HPM_P1;HPM_P2
2023/10/01 00:02:29;;;;;;;13.18;8.40;;;;;;;9.89;78.09;97384.00;6319452;28;20043;-69
2023/10/01 00:05:32;;;;;;;11.63;8.10;;;;;;;9.95;78.12;97387.25;6319164;28;20048;-69
2023/10/01 00:08:37;;;;;;;12.20;8.93;;;;;;;9.99;78.14;97383.50;6319173;28;20138;-69
2023/10/01 00:11:43;;;;;;;14.85;8.48;;;;;;;10.03;78.05;97385.06;6319567;28;20036;-68
2023/10/01 00:14:47;;;;;;;13.85;8.40;;;;;;;9.94;77.94;97386.41;6319458;28;20040;-68
2023/10/01 00:17:52;;;;;;;14.68;9.05;;;;;;;9.89;78.02;97384.00;6317834;28;20044;-68
2023/10/01 00:20:58;;;;;;;13.50;9.10;;;;;;;9.85;78.08;97393.00;6319274;28;20038;-69
2023/10/01 00:24:02;;;;;;;15.70;9.13;;;;;;;9.76;78.35;97388.22;6318791;28;20052;-69
2023/10/01 00:27:08;;;;;;;17.10;9.45;;;;;;;9.75;78.58;97391.78;6318846;28;20048;-69
2023/10/01 00:30:15;;;;;;;13.30;9.00;;;;;;;9.80;78.59;97384.50;6322202;28;20135;-68
2023/10/01 00:33:20;;;;;;;11.90;8.85;;;;;;;9.96;78.49;97394.19;6323326;28;20040;-69
2023/10/01 00:36:23;;;;;;;16.17;9.02;;;;;;;10.03;78.25;97406.09;6319005;28;20434;-69
2023/10/01 00:39:26;;;;;;;12.48;8.68;;;;;;;10.08;78.06;97404.91;6319165;28;20155;-69
2023/10/01 00:42:31;;;;;;;15.23;8.43;;;;;;;10.14;77.97;97403.72;6318677;28;20059;-70
2023/10/01 00:45:34;;;;;;;16.05;9.10;;;;;;;10.19;77.68;97404.31;6318707;28;20039;-70
2023/10/01 00:48:42;;;;;;;12.85;9.15;;;;;;;10.23;77.69;97408.47;6284754;28;20489;-70
2023/10/01 00:51:48;;;;;;;14.15;8.73;;;;;;;10.24;77.36;97415.41;6317471;28;20105;-68
2023/10/01 00:54:52;;;;;;;16.55;9.60;;;;;;;10.28;77.37;97410.91;6317833;28;20406;-69
2023/10/01 00:57:58;;;;;;;18.48;10.05;;;;;;;10.28;77.25;97417.00;6318929;28;20036;-69
2023/10/01 01:01:07;;;;;;;18.20;10.02;;;;;;;10.29;77.19;97418.69;6318418;28;20054;-69
2023/10/01 01:04:21;;;;;;;18.08;10.05;;;;;;;10.29;77.19;97418.69;6318904;28;20043;-69
2023/10/01 01:07:25;;;;;;;14.90;10.45;;;;;;;10.24;77.09;97417.22;6318157;28;20052;-69
2023/10/01 01:10:31;;;;;;;18.17;10.02;;;;;;;10.20;77.06;97419.16;6319148;28;20048;-69
2023/10/01 01:13:36;;;;;;;15.80;9.63;;;;;;;10.13;77.14;97417.78;6323230;28;20048;-69
2023/10/01 01:16:40;;;;;;;14.80;9.95;;;;;;;10.16;77.30;97422.88;6322511;28;20129;-69
2023/10/01 01:19:52;;;;;;;17.17;9.88;;;;;;;10.12;77.29;97409.06;6323569;28;20055;-69
2023/10/01 01:22:57;;;;;;;15.30;9.30;;;;;;;10.09;77.04;97408.38;6322933;28;20048;-69
2023/10/01 01:25:59;;;;;;;11.80;9.27;;;;;;;10.09;77.15;97416.28;6321877;28;20043;-69
2023/10/01 01:29:16;;;;;;;14.82;9.45;;;;;;;10.04;77.25;97416.50;6322410;28;20047;-69
2023/10/01 01:32:22;;;;;;;16.35;9.25;;;;;;;10.03;77.10;97419.22;6322686;28;20075;-70
2023/10/01 01:35:30;;;;;;;14.77;8.90;;;;;;;10.02;77.32;97415.75;6322291;28;20075;-70
2023/10/01 01:38:32;;;;;;;16.83;9.52;;;;;;;10.04;77.16;97418.28;6321789;28;20127;-70
2023/10/01 01:41:48;;;;;;;17.25;9.43;;;;;;;10.05;77.39;97420.84;6322730;28;20513;-70
2023/10/01 01:48:33;;;;;;;15.82;10.45;;;;;;;10.11;77.34;97425.78;6321334;28;20059;-69
2023/10/01 01:51:35;;;;;;;14.02;9.98;;;;;;;10.17;77.38;97424.59;6320844;28;20058;-69
2023/10/01 01:54:41;;;;;;;17.35;10.07;;;;;;;10.21;77.12;97430.53;6322112;28;20035;-69
2023/10/01 01:57:56;;;;;;;13.70;8.55;;;;;;;10.25;76.88;97426.81;6322572;28;20043;-68
2023/10/01 02:01:17;;;;;;;14.73;8.90;;;;;;;10.27;76.80;97431.06;6322059;28;20055;-69
2023/10/01 02:04:19;;;;;;;15.15;9.02;;;;;;;10.24;76.73;97423.31;6321989;28;20055;-70
2023/10/01 02:07:22;;;;;;;;;;;;;;;10.30;76.75;97430.03;6322111;28;20060;-69
2023/10/01 02:10:28;;;;;;;14.27;9.68;;;;;;;10.27;76.48;97425.81;6321993;28;20293;-69
2023/10/01 02:13:30;;;;;;;14.77;9.40;;;;;;;10.28;76.60;97424.03;6321194;28;20055;-69
2023/10/01 02:19:35;;;;;;;16.52;9.25;;;;;;;10.28;76.53;97432.78;6321616;28;20055;-69
2023/10/01 02:22:40;;;;;;;14.13;8.13;;;;;;;10.32;76.67;97429.03;6320657;28;20090;-69
2023/10/01 02:25:49;;;;;;;15.85;9.27;;;;;;;10.34;76.62;97427.19;6320991;28;20138;-68
2023/10/01 02:28:53;;;;;;;13.20;8.90;;;;;;;10.36;76.53;97439.38;6320252;28;20082;-69
2023/10/01 02:31:58;;;;;;;12.75;9.13;;;;;;;10.38;76.51;97434.91;6320836;28;20044;-69
2023/10/01 02:34:59;;;;;;;16.92;9.15;;;;;;;10.44;76.57;97424.03;6321248;28;20051;-69
2023/10/01 02:38:36;;;;;;;15.20;9.15;;;;;;;10.41;76.47;97421.56;6321497;28;20039;-69
2023/10/01 02:41:33;;;;;;;15.25;9.88;;;;;;;10.52;76.15;97434.97;6320756;28;20162;-69
2023/10/01 02:44:40;;;;;;;19.05;10.27;;;;;;;10.56;76.16;97434.75;6321267;28;20043;-69
2023/10/01 02:48:12;;;;;;;13.18;9.70;;;;;;;10.61;76.10;97438.88;6321120;28;20048;-69
2023/10/01 02:51:16;;;;;;;19.52;10.77;;;;;;;10.64;75.95;97434.28;6320837;28;20059;-69
2023/10/01 02:54:21;;;;;;;17.08;10.02;;;;;;;10.69;75.78;97436.66;6319272;28;20055;-69
2023/10/01 02:57:24;;;;;;;18.48;9.98;;;;;;;10.73;75.58;97438.22;6320708;28;20052;-69
2023/10/01 03:00:30;;;;;;;;;;;;;;;10.84;75.61;97446.34;6320810;28;20125;-70
2023/10/01 03:03:32;;;;;;;15.65;9.60;;;;;;;10.85;75.31;97452.47;6320183;28;19920;-69
2023/10/01 03:06:34;;;;;;;14.57;10.60;;;;;;;10.87;75.18;97450.56;6301569;28;20052;-69
2023/10/01 03:09:39;;;;;;;21.30;10.95;;;;;;;10.89;75.22;97454.81;6320539;28;20039;-70
2023/10/01 03:12:49;;;;;;;20.20;11.40;;;;;;;10.82;74.99;97436.84;6320432;28;20048;-68
2023/10/01 03:16:40;;;;;;;18.85;11.60;;;;;;;11.00;74.98;97456.84;6320702;28;20512;-69
2023/10/01 03:19:24;;;;;;;19.77;11.45;;;;;;;11.08;74.82;97454.63;6320580;28;20047;-69
2023/10/01 03:22:31;;;;;;;16.58;10.27;;;;;;;11.16;74.35;97455.03;6320791;28;20082;-69
2023/10/01 03:25:45;;;;;;;17.65;10.20;;;;;;;11.26;74.22;97455.31;6319029;28;20085;-71
2023/10/01 03:32:27;;;;;;;19.63;12.15;;;;;;;11.49;73.67;97453.97;6320971;28;20639;-68
2023/10/01 03:35:30;;;;;;;19.65;12.38;;;;;;;11.62;73.41;97454.94;6317458;28;20048;-68
2023/10/01 03:38:32;;;;;;;22.77;14.60;;;;;;;11.77;73.07;97452.31;6319344;28;20047;-68
2023/10/01 03:41:54;;;;;;;22.80;14.82;;;;;;;11.85;72.72;97458.00;6319893;28;20040;-68
2023/10/01 03:48:19;;;;;;;21.65;15.45;;;;;;;11.85;72.38;97460.63;6318347;28;20507;-69
2023/10/01 03:51:28;;;;;;;49.45;28.23;;;;;;;11.82;72.49;97455.53;6319760;28;20047;-69
2023/10/01 04:01:22;;;;;;;34.05;19.20;;;;;;;12.08;71.97;97468.00;6319397;28;20044;-69
2023/10/01 04:04:31;;;;;;;36.67;20.27;;;;;;;12.22;71.68;97472.44;6319352;28;20048;-69
2023/10/01 04:07:42;;;;;;;35.08;19.33;;;;;;;12.30;71.27;97475.44;6318803;28;20166;-70
2023/10/01 04:10:57;;;;;;;29.08;16.25;;;;;;;12.35;70.88;97469.91;6319138;28;20139;-68
2023/10/01 04:14:08;;;;;;;26.38;15.50;;;;;;;12.40;70.74;97477.50;6319119;28;20135;-68
2023/10/01 04:17:13;;;;;;;23.25;13.88;;;;;;;12.45;70.46;97476.28;6321872;28;20044;-70
2023/10/01 04:20:19;;;;;;;29.17;15.23;;;;;;;12.50;70.33;97474.19;6320080;28;20044;-68
2023/10/01 04:23:35;;;;;;;38.63;24.52;;;;;;;12.62;69.91;97483.13;6319092;28;20085;-69
2023/10/01 04:26:40;;;;;;;21.50;13.57;;;;;;;12.67;69.52;97470.50;6317735;28;20059;-69
2023/10/01 04:29:57;;;;;;;20.95;14.25;;;;;;;12.78;69.10;97483.00;6318840;28;20143;-69
2023/10/01 04:33:17;;;;;;;26.33;15.60;;;;;;;12.88;68.63;97484.13;6318459;28;20132;-69
2023/10/01 04:36:21;;;;;;;22.98;14.15;;;;;;;13.16;67.82;97477.03;6318436;28;20418;-68
2023/10/01 04:39:23;;;;;;;24.70;14.32;;;;;;;13.40;67.20;97483.38;6317382;28;20044;-68
2023/10/01 04:42:29;;;;;;;33.33;20.23;;;;;;;13.52;66.50;97491.44;6318612;28;20085;-68
2023/10/01 04:45:36;;;;;;;40.63;24.42;;;;;;;13.67;66.21;97485.13;6319439;28;20052;-68
2023/10/01 04:48:39;;;;;;;32.65;20.73;;;;;;;13.89;65.58;97488.00;6323396;28;20425;-70
2023/10/01 04:51:45;;;;;;;22.83;14.48;;;;;;;14.11;64.67;97481.25;6323709;28;20059;-68
2023/10/01 04:54:51;;;;;;;20.15;12.10;;;;;;;14.27;64.34;97484.50;6324082;28;20044;-68
2023/10/01 04:57:56;;;;;;;21.45;11.65;;;;;;;14.48;63.61;97484.78;6323629;28;20060;-68
2023/10/01 05:01:11;;;;;;;25.00;12.88;;;;;;;14.84;62.68;97482.31;6323592;28;20059;-68
2023/10/01 05:04:16;;;;;;;19.38;11.30;;;;;;;15.19;61.77;97485.88;6323125;28;20044;-68
2023/10/01 05:07:24;;;;;;;21.77;13.73;;;;;;;15.37;61.19;97482.81;6323423;28;20055;-68
2023/10/01 05:10:28;;;;;;;36.15;20.33;;;;;;;15.34;60.84;97483.03;6323476;28;20209;-68
2023/10/01 05:13:31;;;;;;;;;;;;;;;15.38;61.47;97488.00;6323733;28;20063;-68
2023/10/01 05:16:38;;;;;;;41.22;21.00;;;;;;;15.03;61.39;97480.00;6323393;28;20384;-69
2023/10/01 05:19:43;;;;;;;41.20;23.52;;;;;;;14.83;61.81;97489.38;6323305;28;20040;-68
2023/10/01 05:22:50;;;;;;;39.47;20.98;;;;;;;14.87;61.86;97485.56;6322610;28;20051;-69
2023/10/01 05:25:59;;;;;;;40.05;20.63;;;;;;;15.03;61.50;97480.88;6322852;28;20060;-69
2023/10/01 05:29:07;;;;;;;34.67;19.83;;;;;;;15.17;61.07;97498.41;6322905;28;20048;-69
2023/10/01 05:32:13;;;;;;;40.42;19.30;;;;;;;15.32;60.39;97490.28;6322597;28;20052;-69
2023/10/01 05:35:17;;;;;;;37.47;18.42;;;;;;;15.37;60.07;97493.41;6322984;28;20040;-69
2023/10/01 05:38:21;;;;;;;39.28;22.33;;;;;;;15.41;59.99;97494.88;6323111;28;20493;-69
2023/10/01 05:41:32;;;;;;;41.47;22.63;;;;;;;15.45;59.80;97485.72;6322924;28;20044;-69
2023/10/01 05:44:40;;;;;;;41.25;21.98;;;;;;;15.65;59.52;97487.75;6322444;28;20055;-68
2023/10/01 05:47:45;;;;;;;41.72;22.27;;;;;;;15.78;59.10;97485.03;6321910;28;20047;-68
2023/10/01 05:50:53;;;;;;;40.03;22.08;;;;;;;15.87;58.85;97491.44;6322574;28;20036;-68
2023/10/01 05:53:59;;;;;;;39.72;21.15;;;;;;;15.77;59.05;97493.09;6321355;28;20035;-68
2023/10/01 05:57:01;;;;;;;41.90;23.05;;;;;;;15.65;59.37;97487.75;6321609;28;20126;-68
2023/10/01 06:00:03;;;;;;;36.67;20.20;;;;;;;15.78;59.06;97494.81;6321910;28;20174;-69
2023/10/01 06:03:10;;;;;;;29.58;17.15;;;;;;;15.96;58.50;97500.50;6320823;28;20493;-70
2023/10/01 06:06:24;;;;;;;21.98;13.77;;;;;;;16.13;58.05;97498.22;6321826;28;20417;-68
2023/10/01 06:09:33;;;;;;;26.92;16.08;;;;;;;16.16;57.75;97494.50;6322006;28;20421;-70
2023/10/01 06:12:50;;;;;;;27.77;15.80;;;;;;;16.26;57.53;97494.66;6320362;28;20527;-69
2023/10/01 06:15:56;;;;;;;15.25;8.63;;;;;;;16.53;57.00;97499.59;6322023;28;20395;-69
2023/10/01 06:18:58;;;;;;;23.85;14.07;;;;;;;16.72;55.99;97505.13;6321714;28;20040;-69
2023/10/01 06:22:13;;;;;;;27.70;14.55;;;;;;;16.77;55.75;97502.16;6321822;28;20055;-69
2023/10/01 06:25:37;;;;;;;26.40;13.45;;;;;;;16.87;55.35;97496.94;6324114;28;20044;-68
2023/10/01 06:28:41;;;;;;;9.68;6.93;;;;;;;16.88;55.19;97502.13;6323712;28;20421;-69
2023/10/01 06:32:00;;;;;;;18.50;11.57;;;;;;;16.74;54.76;97491.75;6321542;28;20044;-70
2023/10/01 06:35:03;;;;;;;7.45;4.80;;;;;;;16.69;54.89;97496.56;6321318;28;20040;-70
2023/10/01 06:38:09;;;;;;;5.40;3.88;;;;;;;16.76;54.48;97500.44;6321398;28;20059;-68
2023/10/01 06:41:13;;;;;;;3.92;3.00;;;;;;;16.91;53.79;97507.22;6320692;28;20063;-68
2023/10/01 06:44:15;;;;;;;4.25;3.20;;;;;;;17.08;53.18;97505.00;6321048;28;20409;-68
2023/10/01 06:47:22;;;;;;;4.45;2.60;;;;;;;17.29;52.43;97503.22;6320937;28;20051;-69
2023/10/01 06:50:29;;;;;;;3.53;2.33;;;;;;;17.47;52.02;97500.91;6321146;28;20044;-68
2023/10/01 06:53:47;;;;;;;3.88;2.78;;;;;;;17.49;51.61;97502.47;6320175;28;20040;-68
2023/10/01 06:56:48;;;;;;;7.78;4.88;;;;;;;17.40;52.08;97505.84;6320272;28;20425;-68
2023/10/01 06:59:56;;;;;;;5.30;3.50;;;;;;;17.19;52.43;97503.16;6320746;28;20497;-68
2023/10/01 07:03:18;;;;;;;5.28;3.20;;;;;;;17.10;52.27;97506.56;6320120;28;20044;-69
2023/10/01 07:06:22;;;;;;;4.07;2.35;;;;;;;17.08;52.29;97499.69;6320302;28;20528;-69
2023/10/01 07:09:38;;;;;;;3.25;2.55;;;;;;;17.09;52.23;97506.69;6320070;28;20056;-69
2023/10/01 07:12:39;;;;;;;4.40;3.05;;;;;;;17.02;52.53;97501.03;6319778;28;20044;-69
2023/10/01 07:15:48;;;;;;;3.92;3.08;;;;;;;16.91;52.79;97496.56;6321035;28;20036;-69
2023/10/01 07:18:53;;;;;;;6.13;3.30;;;;;;;16.92;52.52;97498.25;6319521;28;20128;-70
2023/10/01 07:22:06;;;;;;;9.95;4.13;;;;;;;16.84;52.75;97498.03;6320360;28;20040;-69
2023/10/01 07:25:28;;;;;;;13.90;5.53;;;;;;;16.88;52.73;97499.47;6319615;28;20502;-70
2023/10/01 07:28:32;;;;;;;11.38;4.82;;;;;;;17.11;51.77;97499.44;6320350;28;20501;-69
2023/10/01 07:31:37;;;;;;;17.35;8.50;;;;;;;17.11;51.90;97510.91;6319680;28;20108;-69
2023/10/01 07:34:50;;;;;;;9.70;4.15;;;;;;;17.22;51.63;97507.38;6320320;28;20039;-70
2023/10/01 07:37:56;;;;;;;12.82;4.70;;;;;;;17.54;50.75;97504.72;6318569;28;20184;-70
2023/10/01 07:41:07;;;;;;;8.27;4.45;;;;;;;17.76;50.80;97500.28;6319932;28;20036;-68
2023/10/01 07:44:12;;;;;;;13.40;3.70;;;;;;;17.76;50.52;97501.13;6319689;28;20047;-68
2023/10/01 07:47:28;;;;;;;15.05;4.55;;;;;;;17.69;50.25;97499.94;6319002;28;20087;-70
2023/10/01 07:50:29;;;;;;;8.82;4.18;;;;;;;17.71;50.10;97500.66;6319478;28;20066;-69
2023/10/01 07:53:33;;;;;;;11.85;4.35;;;;;;;17.70;49.99;97501.63;6318456;28;20039;-69
2023/10/01 07:56:56;;;;;;;13.93;5.18;;;;;;;17.66;50.15;97501.06;6319502;28;20040;-69
2023/10/01 08:00:24;;;;;;;18.98;7.32;;;;;;;17.82;49.73;97495.31;6319503;28;20134;-69
2023/10/01 08:06:49;;;;;;;14.07;4.00;;;;;;;18.38;48.74;97502.94;6319188;28;19920;-69
2023/10/01 08:09:52;;;;;;;11.88;4.03;;;;;;;18.69;48.18;97489.59;6319475;28;20062;-69
2023/10/01 08:15:57;;;;;;;15.02;7.18;;;;;;;19.42;46.24;97492.00;6318867;28;20040;-70
2023/10/01 08:18:59;;;;;;;12.60;5.10;;;;;;;19.47;46.21;97489.75;6319372;28;20405;-70
2023/10/01 08:22:13;;;;;;;13.82;4.68;;;;;;;19.42;45.92;97484.00;6317111;28;20529;-70
2023/10/01 08:25:24;;;;;;;17.42;4.57;;;;;;;19.24;45.77;97487.34;6319068;28;20138;-70
2023/10/01 08:28:43;;;;;;;23.88;5.32;;;;;;;18.96;46.13;97486.31;6319200;28;20127;-70
2023/10/01 08:35:01;;;;;;;20.95;6.40;;;;;;;19.40;45.37;97488.66;6319918;28;20463;-68
2023/10/01 08:38:15;;;;;;;16.42;5.00;;;;;;;19.54;45.15;97488.22;6319109;28;20402;-69
2023/10/01 08:41:33;;;;;;;27.83;6.95;;;;;;;19.54;45.20;97490.91;6318216;28;20497;-68
2023/10/01 08:45:03;;;;;;;15.07;5.05;;;;;;;19.77;45.31;97482.63;6318338;28;20425;-70
2023/10/01 08:48:07;;;;;;;11.82;4.78;;;;;;;19.86;44.25;97484.44;6318103;28;20056;-70
2023/10/01 08:51:12;;;;;;;11.48;4.50;;;;;;;19.51;44.88;97491.19;6318075;28;20056;-70
2023/10/01 08:54:17;;;;;;;6.75;3.08;;;;;;;19.39;45.31;97481.59;6318783;28;20421;-69
2023/10/01 08:57:18;;;;;;;8.82;4.40;;;;;;;19.33;45.01;97477.66;6318764;28;20544;-69
2023/10/01 09:00:23;;;;;;;7.13;3.88;;;;;;;19.15;45.13;97479.34;6318254;28;20059;-69
2023/10/01 09:03:30;;;;;;;7.38;3.30;;;;;;;18.83;45.57;97486.59;6318415;28;20055;-68
2023/10/01 09:06:58;;;;;;;6.85;4.65;;;;;;;18.69;46.25;97476.25;6318993;28;20060;-68
2023/10/01 09:10:05;;;;;;;8.88;3.65;;;;;;;18.66;46.14;97479.22;6318971;28;20035;-69
2023/10/01 09:13:13;;;;;;;4.70;2.95;;;;;;;18.65;46.02;97480.16;6318822;28;20564;-69
2023/10/01 09:16:30;;;;;;;8.13;5.03;;;;;;;18.70;45.73;97483.28;6318710;28;20036;-69
2023/10/01 09:19:50;;;;;;;9.15;3.03;;;;;;;18.95;45.43;97479.31;6318839;28;20039;-70
2023/10/01 09:23:01;;;;;;;5.70;3.03;;;;;;;18.92;45.07;97478.75;6319286;28;20123;-69
2023/10/01 09:26:06;;;;;;;3.55;2.42;;;;;;;18.95;44.74;97479.31;6318690;28;20040;-69
2023/10/01 09:29:23;;;;;;;4.00;2.28;;;;;;;18.73;44.39;97475.00;6317602;28;20048;-69
2023/10/01 09:32:51;;;;;;;3.42;2.50;;;;;;;18.51;44.89;97478.75;6320179;28;20429;-69
2023/10/01 09:35:59;;;;;;;4.72;2.50;;;;;;;18.22;45.60;97475.09;6321709;28;20036;-69
2023/10/01 09:39:06;;;;;;;3.35;2.60;;;;;;;18.12;45.46;97480.38;6322735;28;20056;-69
2023/10/01 09:42:25;;;;;;;3.85;3.08;;;;;;;18.17;46.05;97472.81;6322239;28;20068;-68
2023/10/01 09:45:41;;;;;;;2.72;2.10;;;;;;;18.16;46.26;97477.28;6322680;28;20486;-70
2023/10/01 09:48:48;;;;;;;3.10;2.45;;;;;;;18.08;46.17;97470.94;6322418;28;20063;-69
2023/10/01 09:51:52;;;;;;;5.07;2.63;;;;;;;18.14;46.06;97473.91;6322006;28;20055;-69
2023/10/01 09:55:10;;;;;;;2.72;2.50;;;;;;;18.20;45.50;97469.03;6322392;28;20048;-69
2023/10/01 09:58:20;;;;;;;8.70;5.68;;;;;;;18.15;45.49;97467.63;6322030;28;20421;-69
2023/10/01 10:01:30;;;;;;;3.85;2.65;;;;;;;18.50;44.64;97468.19;6322317;28;20421;-69
2023/10/01 10:04:39;;;;;;;3.35;2.53;;;;;;;19.06;43.28;97460.53;6322034;28;20052;-69
2023/10/01 10:07:40;;;;;;;2.08;1.85;;;;;;;19.72;42.16;97462.53;6321369;28;20052;-68
2023/10/01 10:10:52;;;;;;;3.72;2.40;;;;;;;20.24;40.95;97463.97;6321788;28;20052;-70
2023/10/01 10:13:57;;;;;;;2.28;2.00;;;;;;;20.66;40.66;97459.03;6321587;28;20052;-70
2023/10/01 10:17:18;;;;;;;2.92;2.33;;;;;;;20.82;40.25;97461.06;6321942;28;20044;-69
2023/10/01 10:20:27;;;;;;;3.13;2.15;;;;;;;20.56;40.18;97461.78;6321717;28;20067;-69
2023/10/01 10:23:48;;;;;;;6.25;3.50;;;;;;;20.26;41.08;97459.31;6321196;28;20051;-70
2023/10/01 10:30:27;;;;;;;5.82;4.57;;;;;;;19.56;41.80;97456.03;6269790;28;20048;-68
2023/10/01 10:33:39;;;;;;;3.70;2.83;;;;;;;19.61;41.66;97453.78;6321698;28;20497;-69
2023/10/01 10:37:04;;;;;;;4.20;2.70;;;;;;;19.45;41.91;97446.38;6321138;28;20036;-69
2023/10/01 10:43:16;;;;;;;3.67;2.67;;;;;;;19.82;41.02;97451.00;6321077;28;20342;-70
2023/10/01 10:46:21;;;;;;;6.90;4.35;;;;;;;19.70;41.40;97448.50;6321133;28;20036;-69
2023/10/01 10:49:48;;;;;;;4.72;2.95;;;;;;;19.45;41.67;97446.38;6319756;28;20036;-70
2023/10/01 10:52:57;;;;;;;2.78;2.08;;;;;;;19.09;42.95;97443.41;6319863;28;20044;-69
2023/10/01 10:56:10;;;;;;;3.75;2.10;;;;;;;19.01;42.89;97438.75;6319979;28;20047;-70
2023/10/01 10:59:15;;;;;;;2.65;2.00;;;;;;;19.06;43.20;97443.69;6320814;28;20048;-70
2023/10/01 11:02:19;;;;;;;4.60;2.83;;;;;;;18.86;43.21;97448.13;6320732;28;20044;-68
2023/10/01 11:05:21;;;;;;;11.73;6.82;;;;;;;18.62;43.73;97435.13;6319897;28;20048;-70
2023/10/01 11:08:28;;;;;;;4.80;2.92;;;;;;;18.50;44.00;97441.56;6318874;28;20063;-70
2023/10/01 11:11:41;;;;;;;5.15;4.13;;;;;;;18.35;44.17;97439.25;6320036;28;20074;-69
2023/10/01 11:15:23;;;;;;;2.80;2.20;;;;;;;18.31;44.25;97440.47;6320799;28;20044;-70
2023/10/01 11:18:27;;;;;;;2.35;2.08;;;;;;;18.03;44.45;97438.53;6320148;28;20071;-69
2023/10/01 11:21:31;;;;;;;4.20;2.45;;;;;;;17.99;45.05;97437.97;6320052;28;20036;-69
2023/10/01 11:24:39;;;;;;;5.20;2.50;;;;;;;17.99;45.07;97435.28;6319400;28;20433;-69
2023/10/01 11:28:04;;;;;;;8.38;5.10;;;;;;;17.91;45.34;97427.97;6318020;28;20540;-69
2023/10/01 11:31:28;;;;;;;5.15;2.92;;;;;;;17.82;45.43;97435.91;6318680;28;20036;-69
2023/10/01 11:34:43;;;;;;;2.97;2.63;;;;;;;17.61;46.17;97434.06;6319470;28;20425;-70
2023/10/01 11:37:44;;;;;;;4.35;2.53;;;;;;;17.39;46.06;97432.34;6319696;28;20048;-70
2023/10/01 11:44:24;;;;;;;;;;;;;;;17.03;46.95;97423.78;6320000;28;20073;-69
2023/10/01 11:47:33;;;;;;;5.50;2.65;;;;;;;16.81;47.29;97423.84;6318850;28;19923;-69
2023/10/01 11:50:50;;;;;;;4.35;2.53;;;;;;;16.70;48.22;97431.81;6319571;28;20043;-70
2023/10/01 11:54:11;;;;;;;5.45;3.83;;;;;;;16.74;47.75;97422.66;6319056;28;20048;-69
2023/10/01 11:57:23;;;;;;;2.78;2.08;;;;;;;16.71;47.72;97433.53;6318895;28;20143;-68
2023/10/01 12:03:58;;;;;;;5.78;2.75;;;;;;;16.09;48.68;97401.22;6319155;28;20048;-69
2023/10/01 12:07:00;;;;;;;3.22;2.50;;;;;;;16.15;48.79;97411.34;6318636;28;20054;-69
2023/10/01 12:10:05;;;;;;;4.60;2.60;;;;;;;16.17;49.00;97413.91;6319401;28;20079;-68
2023/10/01 12:13:07;;;;;;;3.53;2.50;;;;;;;16.31;48.61;97420.78;6318715;28;20126;-69
2023/10/01 12:16:09;;;;;;;4.55;2.28;;;;;;;16.33;48.60;97413.50;6320077;28;20125;-69
2023/10/01 12:19:23;;;;;;;3.13;2.25;;;;;;;16.15;48.94;97419.31;6322676;28;20051;-69
2023/10/01 12:22:30;;;;;;;4.20;2.10;;;;;;;16.09;49.14;97416.31;6321918;28;20459;-69
2023/10/01 12:25:46;;;;;;;7.75;2.40;;;;;;;16.10;49.14;97421.50;6319322;28;20134;-69
2023/10/01 12:29:11;;;;;;;3.85;2.20;;;;;;;15.67;49.47;97363.78;6318833;28;20047;-69
2023/10/01 12:32:21;;;;;;;3.55;2.17;;;;;;;15.88;49.50;97413.50;6319098;28;20043;-69
2023/10/01 12:35:28;;;;;;;4.22;2.83;;;;;;;15.80;49.82;97413.28;6318879;28;20040;-69
2023/10/01 12:38:35;;;;;;;3.78;2.63;;;;;;;15.67;50.19;97416.00;6319084;28;20525;-69
2023/10/01 12:45:13;;;;;;;4.72;2.42;;;;;;;15.27;50.99;97401.31;6319380;28;20047;-69
2023/10/01 12:48:20;;;;;;;3.90;2.75;;;;;;;15.12;51.31;97394.53;6318709;28;20044;-68
2023/10/01 12:51:21;;;;;;;10.68;7.30;;;;;;;15.02;51.63;97404.09;6318118;28;20048;-70
2023/10/01 12:54:27;;;;;;;6.28;3.92;;;;;;;14.89;51.82;97398.00;6318924;28;20040;-70
2023/10/01 12:57:33;;;;;;;4.18;2.88;;;;;;;14.76;52.17;97398.94;6318844;28;20142;-69
2023/10/01 13:00:46;;;;;;;5.95;3.72;;;;;;;14.64;52.50;97394.53;6318844;28;20044;-69
2023/10/01 13:03:49;;;;;;;4.63;3.15;;;;;;;14.58;53.14;97400.28;6318745;28;20515;-69
2023/10/01 13:07:01;;;;;;;6.33;3.70;;;;;;;14.45;53.07;97389.69;6318496;28;20044;-70
2023/10/01 13:10:06;;;;;;;3.67;3.00;;;;;;;14.40;53.25;97407.69;6322469;28;20059;-70
2023/10/01 13:13:09;;;;;;;5.85;3.50;;;;;;;14.33;53.59;97401.16;6322714;28;20044;-69
2023/10/01 13:16:16;;;;;;;5.85;3.47;;;;;;;14.26;53.90;97395.44;6322607;28;20055;-71
2023/10/01 13:19:26;;;;;;;5.35;3.58;;;;;;;14.14;54.38;97401.63;6323105;28;20136;-69
2023/10/01 13:22:31;;;;;;;5.60;3.03;;;;;;;14.03;54.50;97393.59;6323239;28;20063;-70
2023/10/01 13:25:46;;;;;;;4.60;3.03;;;;;;;13.92;54.84;97389.06;6322059;28;20425;-69
2023/10/01 13:28:53;;;;;;;4.45;3.00;;;;;;;13.84;55.07;97389.63;6323132;28;20044;-69
2023/10/01 13:32:02;;;;;;;3.17;2.75;;;;;;;13.79;55.25;97391.72;6322521;28;20145;-68
2023/10/01 13:35:31;;;;;;;5.20;3.20;;;;;;;13.76;55.51;97391.94;6322282;28;20058;-69
2023/10/01 14:11:26;;;;;;;17.50;10.48;;;;;;;13.27;57.96;97399.72;6271922;28;20082;-68
2023/10/01 14:14:33;;;;;;;16.05;9.95;;;;;;;13.22;58.42;97397.38;6272008;28;20052;-69
2023/10/01 14:17:35;;;;;;;14.32;7.40;;;;;;;13.18;58.40;97393.22;6271288;28;20052;-71
2023/10/01 14:23:44;;;;;;;17.77;10.55;;;;;;;13.17;58.98;97394.19;6271731;28;20048;-71
2023/10/01 14:26:50;;;;;;;32.92;19.50;;;;;;;13.14;59.15;97394.41;6271852;28;20040;-69
2023/10/01 14:30:02;;;;;;;22.10;13.73;;;;;;;13.12;59.50;97396.28;6271318;28;20049;-70
2023/10/01 14:33:23;;;;;;;16.48;9.82;;;;;;;13.07;59.51;97398.38;6271405;28;20063;-70
2023/10/01 14:36:27;;;;;;;23.17;13.45;;;;;;;13.06;59.63;97401.97;6271436;28;20453;-70
2023/10/01 14:39:30;;;;;;;;;;;;;;;13.00;59.51;97398.78;6271923;28;20041;-68
2023/10/01 14:42:36;;;;;;;47.53;26.08;;;;;;;12.97;59.82;97398.16;6271201;28;19920;-69
2023/10/01 14:45:44;;;;;;;34.88;19.00;;;;;;;12.97;60.05;97396.34;6271140;28;20053;-69
2023/10/01 14:48:50;;;;;;;26.08;14.35;;;;;;;12.96;60.66;97396.44;6271320;28;20037;-69
2023/10/01 14:51:56;;;;;;;21.67;14.32;;;;;;;12.93;60.61;97400.13;6271147;28;20032;-70
2023/10/01 14:55:02;;;;;;;23.17;13.80;;;;;;;12.88;60.90;97398.75;6269618;28;20514;-69
2023/10/01 14:58:13;;;;;;;41.15;23.58;;;;;;;12.87;60.97;97405.81;6271015;28;20091;-69
2023/10/01 15:01:17;;;;;;;20.20;12.65;;;;;;;12.84;61.05;97408.66;6271310;28;20060;-69
2023/10/01 15:04:21;;;;;;;16.45;9.32;;;;;;;12.82;61.25;97405.28;6270903;28;20064;-69
2023/10/01 15:07:25;;;;;;;;;;;;;;;12.77;61.08;97407.41;6311952;28;20052;-69
2023/10/01 15:10:27;;;;;;;16.08;10.65;;;;;;;12.77;61.24;97402.13;6320543;28;19920;-70
2023/10/01 15:13:34;;;;;;;16.52;10.50;;;;;;;12.76;61.37;97397.75;6320603;28;20052;-68
2023/10/01 15:16:39;;;;;;;13.70;9.05;;;;;;;12.79;61.48;97400.19;6324951;28;20048;-70
2023/10/01 15:19:53;;;;;;;16.23;8.85;;;;;;;12.76;61.51;97395.97;6321817;28;20044;-69
2023/10/01 15:22:57;;;;;;;12.70;7.68;;;;;;;12.80;61.57;97401.91;6320209;28;20128;-72
2023/10/01 15:26:11;;;;;;;12.38;7.22;;;;;;;12.81;61.50;97400.94;6319474;28;20055;-70
2023/10/01 15:29:12;;;;;;;32.75;19.60;;;;;;;12.78;61.72;97409.06;6319499;28;20485;-69
2023/10/01 15:32:18;;;;;;;14.82;9.13;;;;;;;12.78;61.85;97401.16;6319904;28;20047;-70
2023/10/01 15:35:23;;;;;;;14.27;8.98;;;;;;;12.74;62.08;97397.03;6319412;28;20055;-70
2023/10/01 15:38:31;;;;;;;16.77;9.65;;;;;;;12.72;62.08;97396.28;6319891;28;20200;-72
2023/10/01 15:41:33;;;;;;;17.15;9.98;;;;;;;12.69;62.61;97399.13;6319781;28;20048;-70
2023/10/01 15:44:44;;;;;;;28.95;15.30;;;;;;;12.67;63.11;97395.72;6319631;28;20036;-70
2023/10/01 15:47:54;;;;;;;35.42;19.80;;;;;;;12.59;63.19;97389.13;6319775;28;20417;-70
2023/10/01 15:51:02;;;;;;;35.80;20.58;;;;;;;12.65;63.33;97402.88;6319653;28;20043;-69
2023/10/01 15:54:22;;;;;;;33.67;19.70;;;;;;;12.62;63.66;97393.38;6319655;28;20432;-70
2023/10/01 15:57:26;;;;;;;27.05;15.75;;;;;;;12.61;63.83;97396.97;6319175;28;20044;-69
2023/10/01 16:00:32;;;;;;;23.17;15.85;;;;;;;12.62;63.97;97398.66;6319216;28;20398;-69
2023/10/01 16:03:41;;;;;;;22.40;13.55;;;;;;;12.61;63.88;97396.13;6319710;28;20090;-69